Time;durP1;ratioP1;P1;durP2;ratioP2;P2;SDS_P1;SDS_P2;PMS_P1;PMS_P2;Temp;Humidity;BMP_temperature;BMP_pressure;BME280_temperature;BME280_humidity;BME280_pressure;Samples;Min_cycle;Max_cycle;Signal;HPM_P1;HPM_P2
2022/01/09 12:12:22;;;;;;;13.45;4.22;;;15.10;84.70;;;15.63;56.30;99433.69;5040647;28;20425;-70
2022/01/09 12:14:53;;;;;;;12.75;4.97;;;15.50;80.70;;;16.09;56.02;99439.72;5023415;28;20037;-71
2022/01/09 12:18:28;;;;;;;16.95;5.72;;;16.10;79.80;;;16.69;55.04;99443.00;5050649;28;20408;-59
2022/01/09 12:20:54;;;;;;;15.55;5.07;;;16.70;78.10;;;16.97;54.37;99442.69;5041122;28;20060;-61
2022/01/09 12:23:22;;;;;;;11.65;4.57;;;17.20;76.70;;;17.19;54.22;99446.59;5038163;28;20029;-60
2022/01/09 12:25:52;;;;;;;12.05;5.05;;;17.50;75.80;;;17.38;54.22;99455.41;5045486;28;20387;-64
2022/01/09 12:28:19;;;;;;;19.92;6.45;;;17.70;75.40;;;17.51;54.33;99459.75;5034627;28;20567;-67
2022/01/09 12:30:52;;;;;;;13.55;5.88;;;17.90;75.30;;;17.63;54.43;99455.41;5037444;28;20049;-60
2022/01/09 12:33:39;;;;;;;17.00;6.38;;;18.00;75.30;;;17.76;54.73;99451.91;5036445;28;20030;-59
2022/01/09 12:36:11;;;;;;;18.98;7.22;;;18.20;75.20;;;17.84;54.74;99449.81;5031769;28;20053;-61
2022/01/09 12:47:41;;;;;;;16.83;7.28;;;18.30;76.40;;;18.17;54.60;99443.41;5096535;27;20604;-48
2022/01/09 12:50:07;;;;;;;14.90;6.97;;;18.50;75.30;;;18.16;53.94;99447.06;5070003;28;20041;-54
2022/01/09 12:52:33;;;;;;;15.80;6.75;;;18.60;74.30;;;18.04;53.87;99435.63;5083681;28;20039;-52
2022/01/09 12:55:12;;;;;;;14.15;6.95;;;18.60;73.40;;;17.96;54.19;99447.25;5073563;28;20066;-55
2022/01/09 12:57:56;;;;;;;13.55;6.20;;;18.50;73.70;;;17.92;54.40;99443.44;5078883;28;20516;-54
2022/01/09 13:00:30;;;;;;;11.80;5.70;;;18.40;73.80;;;17.87;54.63;99448.56;5077498;28;20040;-52
2022/01/09 13:02:57;;;;;;;13.90;5.63;;;18.50;74.00;;;17.83;54.60;99442.13;5073471;28;20060;-58
2022/01/09 13:05:26;;;;;;;9.20;5.85;;;18.40;74.00;;;17.80;54.78;99443.34;5082851;28;20051;-56
2022/01/09 13:08:00;;;;;;;11.00;5.45;;;18.40;74.10;;;17.79;55.11;99440.94;5080465;28;20122;-47
2022/01/09 13:10:34;;;;;;;11.90;5.22;;;18.40;74.40;;;17.77;55.09;99438.50;5073402;28;20123;-47
2022/01/09 13:13:10;;;;;;;9.73;5.30;;;18.30;74.40;;;17.75;55.09;99443.19;5072637;28;20032;-53
2022/01/09 13:15:39;;;;;;;12.48;5.32;;;18.30;74.50;;;17.74;55.15;99443.41;5072759;28;20471;-55
2022/01/09 13:18:06;;;;;;;11.15;4.80;;;18.30;74.40;;;17.72;54.98;99440.16;5080741;28;20123;-53
2022/01/09 13:20:33;;;;;;;14.10;5.07;;;18.30;74.40;;;17.70;54.84;99432.47;5078439;28;20086;-53
2022/01/09 13:23:06;;;;;;;10.30;4.80;;;18.30;74.40;;;17.71;54.94;99422.75;5077846;28;20037;-51
2022/01/09 13:25:49;;;;;;;7.47;4.75;;;18.30;74.40;;;17.69;54.71;99416.91;5074705;28;20159;-56
2022/01/09 13:28:23;;;;;;;7.35;3.92;;;18.30;74.00;;;17.67;54.54;99416.31;5073317;28;20089;-53
2022/01/09 13:30:56;;;;;;;5.88;3.95;;;18.30;73.80;;;17.66;54.46;99407.59;5102745;28;20031;-53
2022/01/09 13:33:22;;;;;;;9.88;4.05;;;18.20;73.70;;;17.65;54.56;99399.88;5070611;28;20036;-54
2022/01/09 13:35:48;;;;;;;9.68;4.30;;;18.20;73.60;;;17.66;54.45;99398.88;5079660;28;20036;-55
2022/01/09 13:38:14;;;;;;;9.85;4.13;;;18.20;73.60;;;17.65;54.47;99398.09;5071537;28;20187;-52
2022/01/09 13:40:40;;;;;;;8.75;4.30;;;18.20;73.50;;;17.66;54.35;99404.16;5068648;28;20040;-50
2022/01/09 13:43:10;;;;;;;8.50;3.85;;;18.20;73.50;;;17.66;54.57;99388.34;5086313;28;20028;-54
2022/01/09 13:45:37;;;;;;;8.95;4.38;;;18.20;73.60;;;17.66;54.50;99404.16;5071125;28;20557;-53
2022/01/09 13:48:05;;;;;;;9.02;4.78;;;18.20;73.60;;;17.65;54.42;99394.59;5080667;28;20033;-51
2022/01/09 13:50:34;;;;;;;8.98;3.60;;;18.20;73.50;;;17.68;55.12;99397.66;5079554;27;20087;-50
2022/01/09 13:53:09;;;;;;;22.38;4.53;;;18.20;74.10;;;17.82;54.92;99398.34;5075390;28;20455;-53
2022/01/09 13:55:36;;;;;;;9.47;3.83;;;18.30;74.40;;;17.95;54.61;99386.88;5075878;28;20758;-50
2022/01/09 13:58:07;;;;;;;9.90;3.72;;;18.40;74.40;;;18.01;54.36;99381.50;5061955;28;20036;-55
2022/01/09 14:05:10;;;;;;;7.40;3.83;;;;;;;-142.96;100.00;63710.47;5075656;27;20437;-56
2022/01/09 14:16:25;;;;;;;;;;;;;;;;;;5047703;27;1970828;-62
2022/01/09 17:27:04;;;;;;;;;;;20.40;65.70;;;;;;4962124;28;1301846;-62
2022/01/09 17:29:30;;;;;;;8.43;2.55;;;20.10;65.30;;;;;;5059340;28;51537;-60
2022/01/09 17:40:09;;;;;;;4.28;2.85;;;;;;;19.77;46.57;99484.19;5033702;28;20777;-61
2022/01/09 17:58:28;;;;;;;8.20;6.90;;;;;;;;;;5081005;27;20405;-61
2022/01/09 18:02:09;;;;;;;13.98;6.78;;;;;;;;;;5028817;27;20416;-64
2022/01/09 18:05:10;;;;;;;8.48;5.93;;;;;;;;;;5050360;27;20635;-61
2022/01/09 18:08:18;;;;;;;;;;;;;;;;;;5040449;28;20142;-56
2022/01/09 18:18:56;;;;;;;14.20;5.88;;;;;;;19.59;49.68;99504.59;5076040;27;20191;-62
2022/01/09 18:21:55;;;;;;;8.00;5.90;;;;;;;19.39;50.26;99505.66;5067883;28;20415;-70
2022/01/09 18:24:22;;;;;;;10.45;6.35;;;;;;;19.50;49.51;99510.19;5010794;28;53573;-63
2022/01/09 18:27:15;;;;;;;9.50;5.82;;;;;;;19.30;50.07;99511.50;5088610;27;20401;-58
2022/01/09 18:32:43;;;;;;;7.35;5.57;;;;;;;20.41;48.76;99518.72;5120269;27;20129;-70
2022/01/09 18:37:48;;;;;;;;;;;;;;;20.36;47.72;99521.22;5068377;27;20242;-51
2022/01/09 18:41:09;;;;;;;7.35;4.97;;;;;;;17.40;45.44;99536.81;5049236;27;2098935;-67
2022/01/09 18:43:35;;;;;;;6.82;4.32;;;;;;;15.17;47.94;99539.38;5098979;28;20067;-67
2022/01/09 18:46:00;;;;;;;5.47;3.97;;;;;;;13.87;49.46;99553.06;5074798;28;20136;-67
2022/01/09 18:48:27;;;;;;;4.82;3.90;;;;;;;13.10;50.30;99544.19;5077147;28;20034;-67
2022/01/09 18:50:55;;;;;;;7.47;4.93;;;;;;;12.60;50.27;99535.28;5063594;28;20060;-67
2022/01/09 18:53:21;;;;;;;6.03;3.83;;;;;;;12.25;50.65;99542.84;5054000;28;20040;-67
2022/01/09 18:55:46;;;;;;;8.18;4.50;;;;;;;11.98;50.55;99540.78;5080772;28;20032;-67
2022/01/09 18:58:13;;;;;;;7.55;4.28;;;;;;;11.79;50.69;99549.91;5082448;28;20024;-67
2022/01/09 19:00:39;;;;;;;8.45;5.15;;;;;;;11.58;50.71;99557.50;5081538;28;20461;-66
2022/01/09 19:03:04;;;;;;;7.07;4.68;;;;;;;11.44;50.61;99550.41;5081431;28;20032;-67
2022/01/09 19:05:31;;;;;;;7.75;4.82;;;;;;;11.32;50.66;99546.59;5083501;28;20035;-67
2022/01/09 19:08:00;;;;;;;8.68;5.07;;;;;;;11.22;50.44;99549.41;5074314;28;20094;-66
2022/01/09 19:10:29;;;;;;;7.30;4.70;;;;;;;11.14;50.47;99550.25;5079599;28;20929;-68
2022/01/09 19:13:01;;;;;;;10.57;5.10;;;;;;;11.11;50.15;99550.59;5076335;28;20027;-68
2022/01/09 19:15:27;;;;;;;8.05;4.72;;;;;;;11.12;51.59;99554.84;5068107;28;20056;-69
2022/01/09 19:17:53;;;;;;;7.80;4.78;;;;;;;11.07;51.77;99548.50;5053414;28;20036;-68
2022/01/09 19:20:20;;;;;;;21.38;6.53;;;;;;;11.04;52.22;99554.88;5043205;28;20057;-66
2022/01/09 19:22:47;;;;;;;11.15;4.40;;;;;;;11.03;52.55;99552.44;5042081;28;20479;-68
2022/01/09 19:25:13;;;;;;;11.60;4.93;;;;;;;10.94;52.67;99542.03;5058468;28;20047;-67
2022/01/09 19:27:39;;;;;;;13.75;5.38;;;;;;;10.86;52.96;99542.09;5054908;28;20021;-67
2022/01/09 19:30:08;;;;;;;12.88;5.72;;;;;;;10.79;53.09;99546.34;5039321;28;20033;-68
2022/01/09 19:32:33;;;;;;;9.43;4.72;;;;;;;10.73;53.26;99547.00;5053308;28;20037;-67
2022/01/09 19:35:00;;;;;;;9.23;4.93;;;;;;;10.69;52.98;99553.53;5053749;28;20499;-68
2022/01/09 19:37:26;;;;;;;10.10;5.68;;;;;;;10.66;53.08;99543.44;5046770;28;20037;-68
2022/01/09 19:39:51;;;;;;;11.07;5.97;;;;;;;10.64;52.91;99554.03;5053521;28;20060;-67
2022/01/09 19:42:17;;;;;;;12.32;6.05;;;;;;;10.61;52.76;99549.16;5061209;28;20040;-67
2022/01/09 19:44:43;;;;;;;10.75;5.93;;;;;;;10.58;52.68;99543.47;5058916;28;20033;-67
2022/01/09 19:47:08;;;;;;;12.35;5.78;;;;;;;10.57;52.87;99552.25;5063220;28;20047;-66
2022/01/09 19:49:34;;;;;;;10.77;5.80;;;;;;;10.56;52.64;99550.63;5043952;28;20098;-67
2022/01/09 19:52:02;;;;;;;12.43;6.20;;;;;;;10.56;52.59;99563.66;5051003;28;20033;-66
2022/01/09 19:54:27;;;;;;;10.18;6.25;;;;;;;10.54;52.70;99553.41;5030482;28;20044;-67
2022/01/09 19:56:53;;;;;;;11.55;5.88;;;;;;;10.53;52.53;99561.38;5049333;28;20489;-67
2022/01/09 19:59:18;;;;;;;12.88;6.45;;;;;;;10.52;52.59;99557.16;5047985;28;20029;-67
2022/01/09 20:01:44;;;;;;;8.27;5.68;;;;;;;10.49;52.57;99547.06;5047647;28;20076;-68
2022/01/09 20:04:10;;;;;;;10.52;6.35;;;;;;;10.49;52.51;99555.69;5049164;28;20029;-70
2022/01/09 20:06:36;;;;;;;10.20;6.15;;;;;;;10.50;52.55;99557.31;5047996;28;20040;-68
2022/01/09 20:09:03;;;;;;;12.13;6.25;;;;;;;10.48;52.30;99563.66;5046241;28;20392;-67
2022/01/09 20:11:29;;;;;;;14.15;6.80;;;;;;;10.47;52.37;99560.25;5048710;28;20033;-67
2022/01/09 20:13:56;;;;;;;13.02;6.20;;;;;;;10.47;52.35;99562.03;5048987;28;20028;-67
2022/01/09 20:16:22;;;;;;;9.95;5.90;;;;;;;10.47;52.37;99572.44;5030604;28;20613;-67
2022/01/09 20:18:48;;;;;;;14.75;7.50;;;;;;;10.46;52.35;99571.63;5048399;28;20029;-67
2022/01/09 20:21:14;;;;;;;11.20;7.00;;;;;;;10.46;52.27;99565.63;5047032;28;20115;-67
2022/01/09 20:23:42;;;;;;;11.50;6.32;;;;;;;10.45;52.36;99569.19;5044410;28;20024;-67
2022/01/09 20:26:11;;;;;;;11.55;6.80;;;;;;;10.45;52.27;99575.22;5042853;28;20164;-67
2022/01/09 20:28:38;;;;;;;9.45;6.45;;;;;;;10.43;52.20;99566.75;5028793;28;20028;-67
2022/01/09 20:31:04;;;;;;;12.25;6.57;;;;;;;10.44;52.22;99570.19;5030670;28;20037;-66
2022/01/09 20:33:30;;;;;;;9.82;6.40;;;;;;;10.43;52.24;99574.56;5048800;28;20035;-67
2022/01/09 20:35:57;;;;;;;11.52;5.90;;;;;;;10.43;52.18;99577.19;5043104;28;20399;-67
2022/01/09 20:38:23;;;;;;;10.43;6.28;;;;;;;10.43;52.71;99576.38;5046945;28;20743;-66
2022/01/09 20:40:49;;;;;;;16.15;7.65;;;;;;;10.42;52.10;99565.13;5045477;28;20076;-67
2022/01/09 20:43:14;;;;;;;11.40;6.63;;;;;;;10.43;52.35;99577.19;5047250;28;20459;-67
2022/01/09 20:45:40;;;;;;;11.88;6.25;;;;;;;10.43;52.21;99571.16;5048265;28;20029;-67
2022/01/09 20:48:06;;;;;;;9.90;5.90;;;;;;;10.41;52.17;99568.72;5048313;28;20033;-67
2022/01/09 20:50:31;;;;;;;11.20;6.07;;;;;;;10.42;52.28;99574.75;5046105;28;20032;-67
2022/01/09 20:52:57;;;;;;;10.90;6.63;;;;;;;10.41;52.20;99563.50;5049003;28;20480;-67
2022/01/09 20:55:22;;;;;;;12.07;6.20;;;;;;;10.42;52.08;99572.13;5049244;28;20025;-67
2022/01/09 20:57:48;;;;;;;10.35;6.35;;;;;;;10.42;52.23;99572.94;5046953;28;20081;-68
2022/01/09 21:00:15;;;;;;;11.57;6.45;;;;;;;10.43;52.17;99568.56;5029484;28;20029;-67
2022/01/09 21:02:41;;;;;;;13.05;7.38;;;;;;;10.43;52.33;99571.16;5046079;28;20033;-68
2022/01/09 21:05:08;;;;;;;11.07;6.78;;;;;;;10.43;51.96;99563.34;5038394;28;20025;-67
2022/01/09 21:07:34;;;;;;;10.05;6.72;;;;;;;10.41;52.02;99562.69;5043904;28;20086;-67
2022/01/09 21:10:00;;;;;;;11.65;6.53;;;;;;;10.41;52.27;99562.69;5044429;28;20033;-67
2022/01/09 21:12:26;;;;;;;9.23;6.40;;;;;;;10.40;52.15;99563.69;5047842;28;20346;-68
2022/01/09 21:14:52;;;;;;;9.98;5.85;;;;;;;10.42;51.92;99569.53;5048233;28;20036;-67
2022/01/09 21:17:18;;;;;;;12.77;7.57;;;;;;;10.41;52.23;99557.50;5026166;28;20060;-68
2022/01/09 21:19:44;;;;;;;11.13;6.90;;;;;;;10.40;52.22;99561.09;5038058;28;20036;-67
2022/01/09 21:22:10;;;;;;;10.98;6.70;;;;;;;10.41;52.33;99562.69;5029058;28;20044;-67
2022/01/09 21:24:35;;;;;;;12.13;7.45;;;;;;;10.42;52.28;99562.53;5033144;28;20072;-67
2022/01/09 21:27:02;;;;;;;12.30;7.35;;;;;;;10.41;52.03;99563.50;5033259;28;20057;-67
2022/01/09 21:29:29;;;;;;;11.02;6.50;;;;;;;10.40;52.37;99561.88;5045499;28;20024;-67
2022/01/09 21:31:55;;;;;;;11.25;7.38;;;;;;;10.41;52.18;99568.72;5026579;28;20037;-67
2022/01/09 21:34:21;;;;;;;11.30;6.68;;;;;;;10.41;52.35;99573.09;5028470;28;20035;-66
2022/01/09 21:36:47;;;;;;;11.10;6.72;;;;;;;10.40;52.39;99572.28;5039921;28;20500;-67
2022/01/09 21:39:13;;;;;;;12.38;7.32;;;;;;;10.39;52.30;99578.50;5034080;28;20029;-67
2022/01/09 21:41:39;;;;;;;11.07;6.88;;;;;;;10.39;52.25;99586.31;5024648;28;20528;-69
2022/01/09 21:44:04;;;;;;;10.45;7.38;;;;;;;10.39;52.38;99586.31;5047826;28;20164;-68
2022/01/09 21:46:30;;;;;;;10.45;7.00;;;;;;;10.40;52.37;99590.53;5043588;28;20021;-69
2022/01/09 21:48:56;;;;;;;10.25;6.85;;;;;;;10.41;52.48;99588.72;5035830;28;20036;-68
2022/01/09 21:51:22;;;;;;;15.32;7.88;;;;;;;10.41;52.52;99591.34;5043933;28;20032;-68
2022/01/09 21:53:47;;;;;;;10.60;6.70;;;;;;;10.41;52.32;99597.34;5041864;28;20044;-68
2022/01/09 21:56:13;;;;;;;12.45;7.43;;;;;;;10.40;52.43;99595.72;5040957;28;20022;-68
2022/01/09 21:58:38;;;;;;;11.55;7.47;;;;;;;10.40;52.55;99585.31;5039488;28;20041;-70
2022/01/09 22:01:04;;;;;;;12.45;8.02;;;;;;;10.40;52.44;99587.13;5040274;28;20029;-70
2022/01/09 22:03:29;;;;;;;10.57;6.78;;;;;;;10.40;52.48;99584.53;5041445;28;20392;-67
2022/01/09 22:05:55;;;;;;;11.82;7.15;;;;;;;10.40;52.65;99584.53;5044796;28;20025;-68
2022/01/09 22:08:21;;;;;;;12.88;6.65;;;;;;;10.40;52.51;99584.53;5026210;28;20037;-67
2022/01/09 22:10:46;;;;;;;13.70;7.50;;;;;;;10.41;52.44;99586.13;5042388;28;20032;-68
2022/01/09 22:13:12;;;;;;;10.82;7.10;;;;;;;10.40;52.40;99589.75;5012113;28;20039;-68
2022/01/09 22:15:40;;;;;;;9.05;5.85;;;;;;;10.39;52.70;99590.72;5040814;28;20025;-67
2022/01/09 22:18:07;;;;;;;10.52;6.65;;;;;;;10.39;52.51;99590.72;5042673;28;20484;-67
2022/01/09 22:20:34;;;;;;;10.40;6.65;;;;;;;10.38;52.51;99586.50;5040741;28;20029;-67
2022/01/09 22:23:00;;;;;;;10.52;6.57;;;;;;;10.38;52.54;99592.50;5037367;28;20152;-67
2022/01/09 22:25:26;;;;;;;10.60;6.80;;;;;;;10.39;52.55;99593.31;5043555;28;20407;-68
2022/01/09 22:27:51;;;;;;;9.13;6.35;;;;;;;10.39;52.64;99591.53;5033004;28;20429;-67
2022/01/09 22:30:17;;;;;;;9.93;5.38;;;;;;;10.47;53.00;99594.09;5042991;28;20028;-66
2022/01/09 22:32:42;;;;;;;10.02;6.03;;;;;;;10.52;53.67;99602.25;5022898;28;20989;-68
2022/01/09 22:35:08;;;;;;;9.90;6.20;;;;;;;10.52;53.74;99599.63;5029891;28;20150;-67
2022/01/09 22:37:34;;;;;;;12.18;5.95;;;;;;;10.52;53.94;99607.44;5044215;28;20403;-67
2022/01/09 22:40:00;;;;;;;10.88;6.38;;;;;;;10.51;54.02;99611.03;5046109;28;20088;-66
2022/01/09 22:42:26;;;;;;;10.77;6.85;;;;;;;10.51;54.21;99605.81;5026434;28;20136;-67
2022/01/09 22:44:51;;;;;;;11.25;7.18;;;;;;;10.49;54.15;99601.75;5038026;28;20082;-67
2022/01/09 22:47:18;;;;;;;11.90;7.40;;;;;;;10.47;54.03;99598.50;5037385;28;20439;-67
2022/01/09 22:49:44;;;;;;;11.13;6.55;;;;;;;10.46;54.01;99608.09;5045195;28;20563;-67
2022/01/09 22:52:10;;;;;;;11.23;7.07;;;;;;;10.46;53.90;99613.31;5039583;28;20075;-67
2022/01/09 22:54:35;;;;;;;14.57;6.95;;;;;;;10.46;53.90;99610.69;5046722;28;20067;-67
2022/01/09 22:57:01;;;;;;;12.73;7.07;;;;;;;10.44;53.97;99614.44;5039549;28;20538;-68
2022/01/09 22:59:27;;;;;;;11.15;6.88;;;;;;;10.46;53.75;99618.50;5044103;28;20138;-67
2022/01/09 23:01:54;;;;;;;11.00;7.05;;;;;;;10.46;53.92;99612.50;5045610;28;20051;-68
2022/01/09 23:04:19;;;;;;;8.48;5.97;;;;;;;10.46;53.79;99620.31;5024731;28;20415;-68
2022/01/09 23:06:45;;;;;;;9.98;6.80;;;;;;;10.45;53.82;99627.31;5040341;28;20024;-68
2022/01/09 23:09:10;;;;;;;9.45;6.45;;;;;;;10.45;53.72;99624.69;5045496;28;20033;-68
2022/01/09 23:11:36;;;;;;;11.95;7.20;;;;;;;10.45;53.48;99621.28;5043534;28;20149;-67
2022/01/09 23:14:03;;;;;;;10.45;7.20;;;;;;;10.44;53.63;99625.69;5043026;28;20476;-68
2022/01/09 23:16:28;;;;;;;12.80;7.07;;;;;;;10.46;53.49;99628.13;5039171;28;20031;-67
2022/01/09 23:18:54;;;;;;;10.13;6.22;;;;;;;10.46;53.36;99628.13;5045952;28;20029;-67
2022/01/09 23:21:20;;;;;;;10.68;7.47;;;;;;;10.48;53.36;99631.38;5044374;28;20032;-67
2022/01/09 23:23:46;;;;;;;10.88;6.95;;;;;;;10.48;53.43;99623.56;5042391;28;20449;-68
2022/01/09 23:26:12;;;;;;;9.98;6.65;;;;;;;10.45;53.50;99627.31;5047071;28;20091;-67
2022/01/09 23:28:37;;;;;;;8.70;6.70;;;;;;;10.46;53.55;99623.72;5027271;28;20076;-67
2022/01/09 23:31:03;;;;;;;10.90;6.63;;;;;;;10.45;53.37;99621.28;5046245;28;20390;-68
2022/01/09 23:33:29;;;;;;;10.73;6.57;;;;;;;10.47;53.21;99632.34;5049761;28;20033;-68
2022/01/09 23:35:54;;;;;;;9.77;6.65;;;;;;;10.46;53.35;99630.72;5048022;28;20035;-68
2022/01/09 23:38:20;;;;;;;10.27;6.07;;;;;;;10.44;53.37;99628.28;5047240;28;20052;-68
2022/01/09 23:40:46;;;;;;;9.05;6.10;;;;;;;10.44;53.49;99633.50;5046452;28;20045;-68
2022/01/09 23:43:11;;;;;;;11.70;7.15;;;;;;;10.45;53.43;99635.13;5041966;28;20151;-68
2022/01/09 23:45:44;;;;;;;11.73;7.32;;;;;;;10.46;53.26;99638.53;5044740;28;20025;-67
2022/01/09 23:50:45;;;;;;;8.80;6.32;;;;;;;10.44;53.35;99643.09;5046667;28;20745;-67
2022/01/09 23:53:10;;;;;;;9.15;5.95;;;;;;;10.43;53.25;99636.25;5043438;28;20027;-68
2022/01/09 23:55:37;;;;;;;11.43;6.18;;;;;;;10.42;53.27;99622.44;5029395;28;20428;-68
2022/01/09 23:58:08;;;;;;;8.60;6.40;;;;;;;10.43;53.46;99631.06;5046075;28;20118;-67
